sensor_id;sensor_type;location;lat;lon;timestamp;P1;durP1;ratioP1;P2;durP2;ratioP2
14740;SDS011;7462;53.530;9.414;2022-12-24T00:01:19;38.27;;;17.90;;
14740;SDS011;7462;53.530;9.414;2022-12-24T00:03:48;43.73;;;19.87;;
14740;SDS011;7462;53.530;9.414;2022-12-24T00:06:17;52.10;;;20.93;;
14740;SDS011;7462;53.530;9.414;2022-12-24T00:08:47;42.93;;;19.93;;
14740;SDS011;7462;53.530;9.414;2022-12-24T00:11:17;43.23;;;19.30;;
14740;SDS011;7462;53.530;9.414;2022-12-24T00:13:46;48.40;;;21.10;;
14740;SDS011;7462;53.530;9.414;2022-12-24T00:16:15;54.40;;;23.40;;
14740;SDS011;7462;53.530;9.414;2022-12-24T00:18:43;59.87;;;24.27;;
14740;SDS011;7462;53.530;9.414;2022-12-24T00:21:12;47.57;;;22.93;;
14740;SDS011;7462;53.530;9.414;2022-12-24T00:23:41;51.30;;;22.53;;
14740;SDS011;7462;53.530;9.414;2022-12-24T00:26:09;44.87;;;20.70;;
14740;SDS011;7462;53.530;9.414;2022-12-24T00:28:39;50.20;;;22.20;;
14740;SDS011;7462;53.530;9.414;2022-12-24T00:31:09;51.70;;;23.13;;
14740;SDS011;7462;53.530;9.414;2022-12-24T00:33:38;49.50;;;22.10;;
14740;SDS011;7462;53.530;9.414;2022-12-24T00:36:07;41.83;;;20.57;;
14740;SDS011;7462;53.530;9.414;2022-12-24T00:38:35;43.80;;;21.47;;
14740;SDS011;7462;53.530;9.414;2022-12-24T00:41:04;42.00;;;21.80;;
14740;SDS011;7462;53.530;9.414;2022-12-24T00:43:52;41.57;;;21.60;;
14740;SDS011;7462;53.530;9.414;2022-12-24T00:46:21;40.23;;;20.33;;
14740;SDS011;7462;53.530;9.414;2022-12-24T00:48:50;38.20;;;20.57;;
14740;SDS011;7462;53.530;9.414;2022-12-24T00:51:18;45.43;;;21.93;;
14740;SDS011;7462;53.530;9.414;2022-12-24T00:53:47;38.50;;;20.37;;
14740;SDS011;7462;53.530;9.414;2022-12-24T00:56:15;40.17;;;20.37;;
14740;SDS011;7462;53.530;9.414;2022-12-24T00:58:43;35.40;;;17.90;;
14740;SDS011;7462;53.530;9.414;2022-12-24T01:01:13;33.60;;;18.67;;
14740;SDS011;7462;53.530;9.414;2022-12-24T01:03:42;34.10;;;18.13;;
14740;SDS011;7462;53.530;9.414;2022-12-24T01:06:11;33.43;;;17.93;;
14740;SDS011;7462;53.530;9.414;2022-12-24T01:08:39;37.70;;;18.60;;
14740;SDS011;7462;53.530;9.414;2022-12-24T01:11:08;36.93;;;18.93;;
14740;SDS011;7462;53.530;9.414;2022-12-24T01:13:37;34.90;;;18.47;;
14740;SDS011;7462;53.530;9.414;2022-12-24T01:16:13;31.23;;;16.63;;
14740;SDS011;7462;53.530;9.414;2022-12-24T01:18:43;31.23;;;17.23;;
14740;SDS011;7462;53.530;9.414;2022-12-24T01:21:11;35.17;;;17.97;;
14740;SDS011;7462;53.530;9.414;2022-12-24T01:23:39;33.83;;;18.10;;
14740;SDS011;7462;53.530;9.414;2022-12-24T01:26:08;31.23;;;16.70;;
14740;SDS011;7462;53.530;9.414;2022-12-24T01:28:37;30.37;;;16.87;;
14740;SDS011;7462;53.530;9.414;2022-12-24T01:31:09;31.00;;;17.23;;
14740;SDS011;7462;53.530;9.414;2022-12-24T01:33:39;35.10;;;17.90;;
14740;SDS011;7462;53.530;9.414;2022-12-24T01:36:08;31.30;;;17.37;;
14740;SDS011;7462;53.530;9.414;2022-12-24T01:38:36;31.30;;;17.03;;
14740;SDS011;7462;53.530;9.414;2022-12-24T01:41:04;33.40;;;17.70;;
14740;SDS011;7462;53.530;9.414;2022-12-24T01:43:50;32.13;;;17.60;;
14740;SDS011;7462;53.530;9.414;2022-12-24T01:46:18;31.70;;;16.90;;
14740;SDS011;7462;53.530;9.414;2022-12-24T01:48:52;27.47;;;15.23;;
14740;SDS011;7462;53.530;9.414;2022-12-24T01:51:23;33.77;;;17.27;;
14740;SDS011;7462;53.530;9.414;2022-12-24T01:53:57;31.57;;;16.87;;
14740;SDS011;7462;53.530;9.414;2022-12-24T01:56:29;28.87;;;15.83;;
14740;SDS011;7462;53.530;9.414;2022-12-24T01:58:59;36.03;;;17.30;;
14740;SDS011;7462;53.530;9.414;2022-12-24T02:01:31;30.73;;;16.13;;
14740;SDS011;7462;53.530;9.414;2022-12-24T02:04:01;33.37;;;16.70;;
14740;SDS011;7462;53.530;9.414;2022-12-24T02:06:35;37.03;;;17.50;;
14740;SDS011;7462;53.530;9.414;2022-12-24T02:09:03;32.93;;;16.77;;
14740;SDS011;7462;53.530;9.414;2022-12-24T02:11:32;29.13;;;16.33;;
14740;SDS011;7462;53.530;9.414;2022-12-24T02:14:04;34.97;;;16.83;;
14740;SDS011;7462;53.530;9.414;2022-12-24T02:16:34;33.10;;;16.27;;
14740;SDS011;7462;53.530;9.414;2022-12-24T02:19:21;34.83;;;17.57;;
14740;SDS011;7462;53.530;9.414;2022-12-24T02:22:13;36.80;;;17.83;;
14740;SDS011;7462;53.530;9.414;2022-12-24T02:24:51;34.10;;;17.70;;
14740;SDS011;7462;53.530;9.414;2022-12-24T02:27:50;37.13;;;17.13;;
14740;SDS011;7462;53.530;9.414;2022-12-24T02:30:23;35.00;;;17.43;;
14740;SDS011;7462;53.530;9.414;2022-12-24T02:32:59;33.70;;;17.70;;
14740;SDS011;7462;53.530;9.414;2022-12-24T02:35:37;32.47;;;17.07;;
14740;SDS011;7462;53.530;9.414;2022-12-24T02:38:13;33.80;;;16.97;;
14740;SDS011;7462;53.530;9.414;2022-12-24T02:40:47;33.43;;;17.07;;
14740;SDS011;7462;53.530;9.414;2022-12-24T02:43:19;33.00;;;17.57;;
14740;SDS011;7462;53.530;9.414;2022-12-24T02:45:53;33.20;;;16.87;;
14740;SDS011;7462;53.530;9.414;2022-12-24T02:48:25;34.20;;;17.67;;
14740;SDS011;7462;53.530;9.414;2022-12-24T02:50:56;33.73;;;16.37;;
14740;SDS011;7462;53.530;9.414;2022-12-24T02:53:25;32.87;;;16.67;;
14740;SDS011;7462;53.530;9.414;2022-12-24T02:55:57;31.60;;;16.00;;
14740;SDS011;7462;53.530;9.414;2022-12-24T02:58:40;32.90;;;16.60;;
14740;SDS011;7462;53.530;9.414;2022-12-24T03:01:19;31.87;;;16.93;;
14740;SDS011;7462;53.530;9.414;2022-12-24T03:03:58;32.13;;;16.50;;
14740;SDS011;7462;53.530;9.414;2022-12-24T03:06:38;31.07;;;16.63;;
14740;SDS011;7462;53.530;9.414;2022-12-24T03:09:13;29.20;;;15.57;;
14740;SDS011;7462;53.530;9.414;2022-12-24T03:11:47;29.00;;;15.30;;
14740;SDS011;7462;53.530;9.414;2022-12-24T03:14:22;30.27;;;16.60;;
14740;SDS011;7462;53.530;9.414;2022-12-24T03:16:53;29.53;;;14.87;;
14740;SDS011;7462;53.530;9.414;2022-12-24T03:19:22;29.50;;;15.37;;
14740;SDS011;7462;53.530;9.414;2022-12-24T03:21:51;27.43;;;15.30;;
14740;SDS011;7462;53.530;9.414;2022-12-24T03:24:23;30.17;;;15.67;;
14740;SDS011;7462;53.530;9.414;2022-12-24T03:26:51;28.40;;;15.03;;
14740;SDS011;7462;53.530;9.414;2022-12-24T03:29:19;25.73;;;14.33;;
14740;SDS011;7462;53.530;9.414;2022-12-24T03:31:48;26.83;;;14.67;;
14740;SDS011;7462;53.530;9.414;2022-12-24T03:34:20;26.80;;;14.63;;
14740;SDS011;7462;53.530;9.414;2022-12-24T03:36:48;25.03;;;14.70;;
14740;SDS011;7462;53.530;9.414;2022-12-24T03:39:17;28.07;;;15.70;;
14740;SDS011;7462;53.530;9.414;2022-12-24T03:41:45;22.73;;;12.73;;
14740;SDS011;7462;53.530;9.414;2022-12-24T03:44:13;25.13;;;13.40;;
14740;SDS011;7462;53.530;9.414;2022-12-24T03:46:42;30.30;;;15.23;;
14740;SDS011;7462;53.530;9.414;2022-12-24T03:49:10;24.13;;;13.47;;
14740;SDS011;7462;53.530;9.414;2022-12-24T03:51:39;29.87;;;14.77;;
14740;SDS011;7462;53.530;9.414;2022-12-24T03:54:07;25.93;;;14.03;;
14740;SDS011;7462;53.530;9.414;2022-12-24T03:56:35;27.97;;;15.27;;
14740;SDS011;7462;53.530;9.414;2022-12-24T03:59:03;25.23;;;13.37;;
14740;SDS011;7462;53.530;9.414;2022-12-24T04:01:31;26.07;;;14.40;;
14740;SDS011;7462;53.530;9.414;2022-12-24T04:03:59;26.03;;;13.73;;
14740;SDS011;7462;53.530;9.414;2022-12-24T04:06:27;25.17;;;13.60;;
14740;SDS011;7462;53.530;9.414;2022-12-24T04:08:57;24.53;;;12.60;;
14740;SDS011;7462;53.530;9.414;2022-12-24T04:11:27;30.47;;;15.43;;
14740;SDS011;7462;53.530;9.414;2022-12-24T04:13:55;26.87;;;14.00;;
14740;SDS011;7462;53.530;9.414;2022-12-24T04:16:23;30.33;;;15.23;;
14740;SDS011;7462;53.530;9.414;2022-12-24T04:18:51;31.77;;;15.53;;
14740;SDS011;7462;53.530;9.414;2022-12-24T04:21:19;28.37;;;13.97;;
14740;SDS011;7462;53.530;9.414;2022-12-24T04:23:47;27.70;;;14.63;;
14740;SDS011;7462;53.530;9.414;2022-12-24T04:26:16;29.83;;;14.00;;
14740;SDS011;7462;53.530;9.414;2022-12-24T04:28:45;26.73;;;13.30;;
14740;SDS011;7462;53.530;9.414;2022-12-24T04:31:13;30.77;;;17.25;;
14740;SDS011;7462;53.530;9.414;2022-12-24T04:33:43;27.40;;;14.50;;
14740;SDS011;7462;53.530;9.414;2022-12-24T04:36:14;25.60;;;14.40;;
14740;SDS011;7462;53.530;9.414;2022-12-24T04:38:43;29.57;;;13.73;;
14740;SDS011;7462;53.530;9.414;2022-12-24T04:41:12;26.40;;;13.53;;
14740;SDS011;7462;53.530;9.414;2022-12-24T04:43:50;25.13;;;12.53;;
14740;SDS011;7462;53.530;9.414;2022-12-24T04:46:20;26.57;;;13.87;;
14740;SDS011;7462;53.530;9.414;2022-12-24T04:48:50;26.77;;;13.50;;
14740;SDS011;7462;53.530;9.414;2022-12-24T04:51:19;27.60;;;14.27;;
14740;SDS011;7462;53.530;9.414;2022-12-24T04:53:48;26.17;;;13.17;;
14740;SDS011;7462;53.530;9.414;2022-12-24T04:56:17;26.70;;;13.77;;
14740;SDS011;7462;53.530;9.414;2022-12-24T04:58:46;23.03;;;12.97;;
14740;SDS011;7462;53.530;9.414;2022-12-24T05:01:17;25.47;;;13.73;;
14740;SDS011;7462;53.530;9.414;2022-12-24T05:03:47;25.70;;;12.90;;
14740;SDS011;7462;53.530;9.414;2022-12-24T05:06:16;22.63;;;12.73;;
14740;SDS011;7462;53.530;9.414;2022-12-24T05:08:46;21.63;;;12.00;;
14740;SDS011;7462;53.530;9.414;2022-12-24T05:11:14;22.17;;;12.37;;
14740;SDS011;7462;53.530;9.414;2022-12-24T05:13:43;23.50;;;12.00;;
14740;SDS011;7462;53.530;9.414;2022-12-24T05:16:13;22.03;;;12.77;;
14740;SDS011;7462;53.530;9.414;2022-12-24T05:18:44;22.67;;;12.57;;
14740;SDS011;7462;53.530;9.414;2022-12-24T05:21:13;21.50;;;12.07;;
14740;SDS011;7462;53.530;9.414;2022-12-24T05:23:42;19.13;;;10.90;;
14740;SDS011;7462;53.530;9.414;2022-12-24T05:26:29;19.83;;;11.30;;
14740;SDS011;7462;53.530;9.414;2022-12-24T05:29:00;22.57;;;12.50;;
14740;SDS011;7462;53.530;9.414;2022-12-24T05:31:29;18.60;;;11.50;;
14740;SDS011;7462;53.530;9.414;2022-12-24T05:34:00;22.83;;;12.17;;
14740;SDS011;7462;53.530;9.414;2022-12-24T05:36:28;21.30;;;12.20;;
14740;SDS011;7462;53.530;9.414;2022-12-24T05:38:57;24.33;;;12.40;;
14740;SDS011;7462;53.530;9.414;2022-12-24T05:41:25;20.20;;;12.50;;
14740;SDS011;7462;53.530;9.414;2022-12-24T05:43:53;20.67;;;11.53;;
14740;SDS011;7462;53.530;9.414;2022-12-24T05:46:22;21.63;;;11.70;;
14740;SDS011;7462;53.530;9.414;2022-12-24T05:48:51;18.87;;;10.93;;
14740;SDS011;7462;53.530;9.414;2022-12-24T05:51:21;21.10;;;10.63;;
14740;SDS011;7462;53.530;9.414;2022-12-24T05:53:50;21.40;;;11.93;;
14740;SDS011;7462;53.530;9.414;2022-12-24T05:56:19;21.93;;;11.70;;
14740;SDS011;7462;53.530;9.414;2022-12-24T05:58:48;19.73;;;11.50;;
14740;SDS011;7462;53.530;9.414;2022-12-24T06:01:17;18.60;;;11.50;;
14740;SDS011;7462;53.530;9.414;2022-12-24T06:03:46;22.50;;;11.73;;
14740;SDS011;7462;53.530;9.414;2022-12-24T06:06:15;20.23;;;11.77;;
14740;SDS011;7462;53.530;9.414;2022-12-24T06:08:49;20.17;;;11.80;;
14740;SDS011;7462;53.530;9.414;2022-12-24T06:11:19;20.30;;;11.53;;
14740;SDS011;7462;53.530;9.414;2022-12-24T06:13:49;20.77;;;11.43;;
14740;SDS011;7462;53.530;9.414;2022-12-24T06:16:19;19.93;;;11.77;;
14740;SDS011;7462;53.530;9.414;2022-12-24T06:18:48;19.93;;;11.27;;
14740;SDS011;7462;53.530;9.414;2022-12-24T06:21:16;18.30;;;10.70;;
14740;SDS011;7462;53.530;9.414;2022-12-24T06:23:44;19.60;;;10.83;;
14740;SDS011;7462;53.530;9.414;2022-12-24T06:26:15;20.43;;;11.67;;
14740;SDS011;7462;53.530;9.414;2022-12-24T06:28:45;19.23;;;11.00;;
14740;SDS011;7462;53.530;9.414;2022-12-24T06:31:15;22.47;;;12.13;;
14740;SDS011;7462;53.530;9.414;2022-12-24T06:33:44;21.70;;;11.53;;
14740;SDS011;7462;53.530;9.414;2022-12-24T06:36:13;18.33;;;10.17;;
14740;SDS011;7462;53.530;9.414;2022-12-24T06:38:43;18.80;;;10.00;;
14740;SDS011;7462;53.530;9.414;2022-12-24T06:41:12;18.50;;;10.93;;
14740;SDS011;7462;53.530;9.414;2022-12-24T06:43:43;18.00;;;9.97;;
14740;SDS011;7462;53.530;9.414;2022-12-24T06:46:12;18.47;;;10.40;;
14740;SDS011;7462;53.530;9.414;2022-12-24T06:48:41;16.63;;;9.03;;
14740;SDS011;7462;53.530;9.414;2022-12-24T06:51:10;18.37;;;11.07;;
14740;SDS011;7462;53.530;9.414;2022-12-24T06:53:39;18.17;;;10.23;;
14740;SDS011;7462;53.530;9.414;2022-12-24T06:56:08;17.13;;;9.87;;
14740;SDS011;7462;53.530;9.414;2022-12-24T06:58:38;19.20;;;10.77;;
14740;SDS011;7462;53.530;9.414;2022-12-24T07:01:09;18.23;;;10.00;;
14740;SDS011;7462;53.530;9.414;2022-12-24T07:03:39;18.67;;;11.33;;
14740;SDS011;7462;53.530;9.414;2022-12-24T07:06:07;18.13;;;11.17;;
14740;SDS011;7462;53.530;9.414;2022-12-24T07:08:41;18.57;;;10.83;;
14740;SDS011;7462;53.530;9.414;2022-12-24T07:11:09;18.93;;;10.60;;
14740;SDS011;7462;53.530;9.414;2022-12-24T07:13:37;17.33;;;10.43;;
14740;SDS011;7462;53.530;9.414;2022-12-24T07:16:05;18.13;;;10.23;;
14740;SDS011;7462;53.530;9.414;2022-12-24T07:18:36;15.60;;;10.53;;
14740;SDS011;7462;53.530;9.414;2022-12-24T07:21:04;16.00;;;9.97;;
14740;SDS011;7462;53.530;9.414;2022-12-24T07:23:32;14.90;;;9.83;;
14740;SDS011;7462;53.530;9.414;2022-12-24T07:26:01;17.07;;;9.93;;
14740;SDS011;7462;53.530;9.414;2022-12-24T07:28:30;15.13;;;9.27;;
14740;SDS011;7462;53.530;9.414;2022-12-24T07:30:58;15.00;;;9.70;;
14740;SDS011;7462;53.530;9.414;2022-12-24T07:33:28;17.30;;;10.03;;
14740;SDS011;7462;53.530;9.414;2022-12-24T07:35:57;16.30;;;9.83;;
14740;SDS011;7462;53.530;9.414;2022-12-24T07:38:26;16.73;;;9.57;;
14740;SDS011;7462;53.530;9.414;2022-12-24T07:40:55;18.70;;;10.50;;
14740;SDS011;7462;53.530;9.414;2022-12-24T07:43:23;17.63;;;10.50;;
14740;SDS011;7462;53.530;9.414;2022-12-24T07:45:54;16.33;;;10.57;;
14740;SDS011;7462;53.530;9.414;2022-12-24T07:48:23;16.03;;;9.57;;
14740;SDS011;7462;53.530;9.414;2022-12-24T07:50:53;17.30;;;10.53;;
14740;SDS011;7462;53.530;9.414;2022-12-24T07:53:23;15.17;;;9.87;;
14740;SDS011;7462;53.530;9.414;2022-12-24T07:55:52;17.43;;;9.80;;
14740;SDS011;7462;53.530;9.414;2022-12-24T07:58:20;16.93;;;9.47;;
14740;SDS011;7462;53.530;9.414;2022-12-24T08:00:53;19.20;;;10.40;;
14740;SDS011;7462;53.530;9.414;2022-12-24T08:03:22;14.80;;;9.47;;
14740;SDS011;7462;53.530;9.414;2022-12-24T08:05:51;16.90;;;10.27;;
14740;SDS011;7462;53.530;9.414;2022-12-24T08:08:20;18.03;;;11.23;;
14740;SDS011;7462;53.530;9.414;2022-12-24T08:10:48;17.93;;;10.43;;
14740;SDS011;7462;53.530;9.414;2022-12-24T08:13:17;15.27;;;9.60;;
14740;SDS011;7462;53.530;9.414;2022-12-24T08:15:45;17.07;;;9.40;;
14740;SDS011;7462;53.530;9.414;2022-12-24T08:18:13;13.50;;;8.80;;
14740;SDS011;7462;53.530;9.414;2022-12-24T08:20:41;14.83;;;9.03;;
14740;SDS011;7462;53.530;9.414;2022-12-24T08:23:09;15.67;;;9.67;;
14740;SDS011;7462;53.530;9.414;2022-12-24T08:25:40;15.03;;;9.30;;
14740;SDS011;7462;53.530;9.414;2022-12-24T08:28:08;15.33;;;9.03;;
14740;SDS011;7462;53.530;9.414;2022-12-24T08:30:37;16.87;;;9.53;;
14740;SDS011;7462;53.530;9.414;2022-12-24T08:33:05;16.17;;;9.70;;
14740;SDS011;7462;53.530;9.414;2022-12-24T08:35:33;17.03;;;10.60;;
14740;SDS011;7462;53.530;9.414;2022-12-24T08:38:01;16.03;;;9.63;;
14740;SDS011;7462;53.530;9.414;2022-12-24T08:40:29;19.37;;;9.43;;
14740;SDS011;7462;53.530;9.414;2022-12-24T08:42:59;18.83;;;11.30;;
14740;SDS011;7462;53.530;9.414;2022-12-24T08:45:28;19.17;;;10.50;;
14740;SDS011;7462;53.530;9.414;2022-12-24T08:48:05;15.67;;;10.23;;
14740;SDS011;7462;53.530;9.414;2022-12-24T08:50:37;15.47;;;9.77;;
14740;SDS011;7462;53.530;9.414;2022-12-24T08:53:06;18.33;;;10.40;;
14740;SDS011;7462;53.530;9.414;2022-12-24T08:55:34;17.40;;;10.20;;
14740;SDS011;7462;53.530;9.414;2022-12-24T08:58:04;16.23;;;10.30;;
14740;SDS011;7462;53.530;9.414;2022-12-24T09:00:32;15.67;;;10.33;;
14740;SDS011;7462;53.530;9.414;2022-12-24T09:03:00;16.00;;;10.30;;
14740;SDS011;7462;53.530;9.414;2022-12-24T09:05:28;18.47;;;10.40;;
14740;SDS011;7462;53.530;9.414;2022-12-24T09:07:56;16.90;;;10.47;;
14740;SDS011;7462;53.530;9.414;2022-12-24T09:10:24;16.03;;;10.30;;
14740;SDS011;7462;53.530;9.414;2022-12-24T09:12:52;16.40;;;9.73;;
14740;SDS011;7462;53.530;9.414;2022-12-24T09:15:22;17.17;;;10.83;;
14740;SDS011;7462;53.530;9.414;2022-12-24T09:17:50;17.87;;;10.80;;
14740;SDS011;7462;53.530;9.414;2022-12-24T09:20:18;17.80;;;10.67;;
14740;SDS011;7462;53.530;9.414;2022-12-24T09:22:46;20.20;;;11.63;;
14740;SDS011;7462;53.530;9.414;2022-12-24T09:25:14;18.30;;;9.60;;
14740;SDS011;7462;53.530;9.414;2022-12-24T09:27:42;17.27;;;10.50;;
14740;SDS011;7462;53.530;9.414;2022-12-24T09:30:11;16.03;;;10.20;;
14740;SDS011;7462;53.530;9.414;2022-12-24T09:32:41;16.17;;;10.77;;
14740;SDS011;7462;53.530;9.414;2022-12-24T09:35:09;14.93;;;9.90;;
14740;SDS011;7462;53.530;9.414;2022-12-24T09:37:37;18.93;;;10.17;;
14740;SDS011;7462;53.530;9.414;2022-12-24T09:40:05;19.53;;;12.20;;
14740;SDS011;7462;53.530;9.414;2022-12-24T09:42:44;18.73;;;11.27;;
14740;SDS011;7462;53.530;9.414;2022-12-24T09:45:19;18.70;;;11.77;;
14740;SDS011;7462;53.530;9.414;2022-12-24T09:47:55;21.60;;;12.70;;
14740;SDS011;7462;53.530;9.414;2022-12-24T09:50:29;23.07;;;13.43;;
14740;SDS011;7462;53.530;9.414;2022-12-24T09:53:06;20.73;;;11.93;;
14740;SDS011;7462;53.530;9.414;2022-12-24T09:55:43;19.57;;;11.50;;
14740;SDS011;7462;53.530;9.414;2022-12-24T09:58:15;21.17;;;11.53;;
14740;SDS011;7462;53.530;9.414;2022-12-24T10:00:46;20.97;;;14.43;;
14740;SDS011;7462;53.530;9.414;2022-12-24T10:03:17;24.20;;;13.37;;
14740;SDS011;7462;53.530;9.414;2022-12-24T10:05:47;21.03;;;11.77;;
14740;SDS011;7462;53.530;9.414;2022-12-24T10:08:28;24.53;;;16.67;;
14740;SDS011;7462;53.530;9.414;2022-12-24T10:11:04;59.70;;;44.67;;
14740;SDS011;7462;53.530;9.414;2022-12-24T10:13:40;24.37;;;15.83;;
14740;SDS011;7462;53.530;9.414;2022-12-24T10:16:18;18.07;;;12.70;;
14740;SDS011;7462;53.530;9.414;2022-12-24T10:18:57;21.10;;;15.13;;
14740;SDS011;7462;53.530;9.414;2022-12-24T10:21:33;18.73;;;13.23;;
14740;SDS011;7462;53.530;9.414;2022-12-24T10:24:10;18.70;;;13.53;;
14740;SDS011;7462;53.530;9.414;2022-12-24T10:26:44;18.27;;;12.90;;
14740;SDS011;7462;53.530;9.414;2022-12-24T10:29:16;18.13;;;13.97;;
14740;SDS011;7462;53.530;9.414;2022-12-24T10:31:49;20.23;;;13.67;;
14740;SDS011;7462;53.530;9.414;2022-12-24T10:34:23;16.73;;;13.03;;
14740;SDS011;7462;53.530;9.414;2022-12-24T10:36:56;20.33;;;11.90;;
14740;SDS011;7462;53.530;9.414;2022-12-24T10:39:28;21.40;;;13.00;;
14740;SDS011;7462;53.530;9.414;2022-12-24T10:41:56;22.17;;;13.93;;
14740;SDS011;7462;53.530;9.414;2022-12-24T10:44:27;25.00;;;13.87;;
14740;SDS011;7462;53.530;9.414;2022-12-24T10:46:58;22.30;;;12.93;;
14740;SDS011;7462;53.530;9.414;2022-12-24T10:49:30;31.70;;;14.73;;
14740;SDS011;7462;53.530;9.414;2022-12-24T10:52:04;24.70;;;13.97;;
14740;SDS011;7462;53.530;9.414;2022-12-24T10:54:37;26.30;;;13.97;;
14740;SDS011;7462;53.530;9.414;2022-12-24T10:57:34;29.93;;;14.27;;
14740;SDS011;7462;53.530;9.414;2022-12-24T11:00:03;29.53;;;13.80;;
14740;SDS011;7462;53.530;9.414;2022-12-24T11:02:33;25.80;;;14.43;;
14740;SDS011;7462;53.530;9.414;2022-12-24T11:05:05;29.13;;;14.57;;
14740;SDS011;7462;53.530;9.414;2022-12-24T11:07:58;37.93;;;15.60;;
14740;SDS011;7462;53.530;9.414;2022-12-24T11:10:27;32.47;;;15.37;;
14740;SDS011;7462;53.530;9.414;2022-12-24T11:12:56;33.30;;;14.40;;
14740;SDS011;7462;53.530;9.414;2022-12-24T11:15:44;40.77;;;14.43;;
14740;SDS011;7462;53.530;9.414;2022-12-24T11:18:13;32.37;;;13.80;;
14740;SDS011;7462;53.530;9.414;2022-12-24T11:20:43;33.10;;;13.50;;
14740;SDS011;7462;53.530;9.414;2022-12-24T11:23:19;34.73;;;12.53;;
14740;SDS011;7462;53.530;9.414;2022-12-24T11:25:49;31.37;;;12.10;;
14740;SDS011;7462;53.530;9.414;2022-12-24T11:28:19;35.17;;;11.20;;
14740;SDS011;7462;53.530;9.414;2022-12-24T11:30:56;31.60;;;10.73;;
14740;SDS011;7462;53.530;9.414;2022-12-24T11:33:26;35.40;;;12.50;;
14740;SDS011;7462;53.530;9.414;2022-12-24T11:35:58;35.50;;;11.30;;
14740;SDS011;7462;53.530;9.414;2022-12-24T11:38:29;38.47;;;12.13;;
14740;SDS011;7462;53.530;9.414;2022-12-24T11:41:06;35.40;;;11.53;;
14740;SDS011;7462;53.530;9.414;2022-12-24T11:43:38;29.83;;;10.97;;
14740;SDS011;7462;53.530;9.414;2022-12-24T11:46:13;35.57;;;11.40;;
14740;SDS011;7462;53.530;9.414;2022-12-24T11:49:12;32.73;;;10.57;;
14740;SDS011;7462;53.530;9.414;2022-12-24T11:52:01;30.90;;;10.00;;
14740;SDS011;7462;53.530;9.414;2022-12-24T11:54:49;36.33;;;9.80;;
14740;SDS011;7462;53.530;9.414;2022-12-24T11:57:43;36.60;;;10.23;;
14740;SDS011;7462;53.530;9.414;2022-12-24T12:00:18;32.30;;;9.30;;
14740;SDS011;7462;53.530;9.414;2022-12-24T12:02:47;29.33;;;8.13;;
14740;SDS011;7462;53.530;9.414;2022-12-24T12:05:18;28.67;;;9.03;;
14740;SDS011;7462;53.530;9.414;2022-12-24T12:07:51;36.47;;;8.80;;
14740;SDS011;7462;53.530;9.414;2022-12-24T12:10:23;38.00;;;8.60;;
14740;SDS011;7462;53.530;9.414;2022-12-24T12:12:56;28.37;;;8.30;;
14740;SDS011;7462;53.530;9.414;2022-12-24T12:15:27;28.37;;;7.93;;
14740;SDS011;7462;53.530;9.414;2022-12-24T12:18:02;30.93;;;7.63;;
14740;SDS011;7462;53.530;9.414;2022-12-24T12:20:36;30.80;;;7.77;;
14740;SDS011;7462;53.530;9.414;2022-12-24T12:23:10;36.47;;;8.00;;
14740;SDS011;7462;53.530;9.414;2022-12-24T12:25:43;30.53;;;7.60;;
14740;SDS011;7462;53.530;9.414;2022-12-24T12:28:18;25.97;;;7.47;;
14740;SDS011;7462;53.530;9.414;2022-12-24T12:30:53;32.77;;;7.50;;
14740;SDS011;7462;53.530;9.414;2022-12-24T12:33:29;24.07;;;7.23;;
14740;SDS011;7462;53.530;9.414;2022-12-24T12:36:01;24.87;;;7.17;;
14740;SDS011;7462;53.530;9.414;2022-12-24T12:38:32;26.97;;;7.70;;
14740;SDS011;7462;53.530;9.414;2022-12-24T12:41:03;30.40;;;7.23;;
14740;SDS011;7462;53.530;9.414;2022-12-24T12:44:04;28.43;;;7.03;;
14740;SDS011;7462;53.530;9.414;2022-12-24T12:46:56;25.17;;;7.43;;
14740;SDS011;7462;53.530;9.414;2022-12-24T12:49:39;26.27;;;6.30;;
14740;SDS011;7462;53.530;9.414;2022-12-24T12:52:19;29.40;;;7.57;;
14740;SDS011;7462;53.530;9.414;2022-12-24T12:55:00;26.97;;;6.07;;
14740;SDS011;7462;53.530;9.414;2022-12-24T12:57:50;26.83;;;6.47;;
14740;SDS011;7462;53.530;9.414;2022-12-24T13:00:21;25.20;;;6.27;;
14740;SDS011;7462;53.530;9.414;2022-12-24T13:02:51;26.63;;;6.27;;
14740;SDS011;7462;53.530;9.414;2022-12-24T13:08:31;24.60;;;6.30;;
14740;SDS011;7462;53.530;9.414;2022-12-24T13:11:23;23.30;;;6.30;;
14740;SDS011;7462;53.530;9.414;2022-12-24T13:14:06;24.53;;;6.00;;
14740;SDS011;7462;53.530;9.414;2022-12-24T13:17:05;22.57;;;6.20;;
14740;SDS011;7462;53.530;9.414;2022-12-24T13:22:58;21.83;;;4.97;;
14740;SDS011;7462;53.530;9.414;2022-12-24T13:25:34;27.63;;;6.53;;
14740;SDS011;7462;53.530;9.414;2022-12-24T13:31:24;27.73;;;6.13;;
14740;SDS011;7462;53.530;9.414;2022-12-24T13:33:56;20.77;;;5.70;;
14740;SDS011;7462;53.530;9.414;2022-12-24T13:36:28;21.80;;;5.20;;
14740;SDS011;7462;53.530;9.414;2022-12-24T13:39:27;24.00;;;5.63;;
14740;SDS011;7462;53.530;9.414;2022-12-24T13:41:55;16.77;;;4.53;;
14740;SDS011;7462;53.530;9.414;2022-12-24T13:44:25;21.60;;;6.33;;
14740;SDS011;7462;53.530;9.414;2022-12-24T13:47:14;25.60;;;6.57;;
14740;SDS011;7462;53.530;9.414;2022-12-24T13:49:55;22.13;;;6.03;;
14740;SDS011;7462;53.530;9.414;2022-12-24T13:52:39;26.40;;;7.10;;
14740;SDS011;7462;53.530;9.414;2022-12-24T13:55:18;27.37;;;8.70;;
14740;SDS011;7462;53.530;9.414;2022-12-24T13:57:52;28.30;;;8.50;;
14740;SDS011;7462;53.530;9.414;2022-12-24T14:00:29;25.80;;;9.30;;
14740;SDS011;7462;53.530;9.414;2022-12-24T14:03:15;25.40;;;9.87;;
14740;SDS011;7462;53.530;9.414;2022-12-24T14:05:49;31.60;;;8.97;;
14740;SDS011;7462;53.530;9.414;2022-12-24T14:08:28;26.63;;;10.43;;
14740;SDS011;7462;53.530;9.414;2022-12-24T14:11:04;27.87;;;9.60;;
14740;SDS011;7462;53.530;9.414;2022-12-24T14:16:42;27.43;;;8.30;;
14740;SDS011;7462;53.530;9.414;2022-12-24T14:19:14;28.60;;;9.33;;
14740;SDS011;7462;53.530;9.414;2022-12-24T14:21:48;25.13;;;8.20;;
14740;SDS011;7462;53.530;9.414;2022-12-24T14:24:24;26.23;;;9.87;;
14740;SDS011;7462;53.530;9.414;2022-12-24T14:26:56;34.53;;;9.27;;
14740;SDS011;7462;53.530;9.414;2022-12-24T14:29:27;26.40;;;9.33;;
14740;SDS011;7462;53.530;9.414;2022-12-24T14:32:00;30.80;;;11.90;;
14740;SDS011;7462;53.530;9.414;2022-12-24T14:34:30;30.53;;;11.70;;
14740;SDS011;7462;53.530;9.414;2022-12-24T14:36:58;29.83;;;10.70;;
14740;SDS011;7462;53.530;9.414;2022-12-24T14:39:31;29.80;;;9.30;;
14740;SDS011;7462;53.530;9.414;2022-12-24T14:42:06;28.33;;;9.63;;
14740;SDS011;7462;53.530;9.414;2022-12-24T14:44:45;30.90;;;13.10;;
14740;SDS011;7462;53.530;9.414;2022-12-24T14:47:24;28.07;;;10.43;;
14740;SDS011;7462;53.530;9.414;2022-12-24T14:50:02;26.93;;;10.93;;
14740;SDS011;7462;53.530;9.414;2022-12-24T14:52:45;23.97;;;8.40;;
14740;SDS011;7462;53.530;9.414;2022-12-24T14:55:35;28.27;;;8.57;;
14740;SDS011;7462;53.530;9.414;2022-12-24T14:58:17;28.00;;;9.77;;
14740;SDS011;7462;53.530;9.414;2022-12-24T15:00:51;26.93;;;8.53;;
14740;SDS011;7462;53.530;9.414;2022-12-24T15:03:23;20.47;;;7.40;;
14740;SDS011;7462;53.530;9.414;2022-12-24T15:05:53;30.02;;;10.07;;
14740;SDS011;7462;53.530;9.414;2022-12-24T15:08:27;22.60;;;8.13;;
14740;SDS011;7462;53.530;9.414;2022-12-24T15:10:58;24.30;;;8.20;;
14740;SDS011;7462;53.530;9.414;2022-12-24T15:13:31;25.27;;;8.50;;
14740;SDS011;7462;53.530;9.414;2022-12-24T15:16:03;23.03;;;6.47;;
14740;SDS011;7462;53.530;9.414;2022-12-24T15:18:36;17.43;;;6.47;;
14740;SDS011;7462;53.530;9.414;2022-12-24T15:21:06;23.23;;;6.57;;